Nearby METAR Reports

 

EGFF - Cardiff-Wales Ar, United Kingdom
Distance from station: SSW 23km
Updated: 17/10/2019 07:20
Few Clouds
Few Clouds
 Wind from S
Wind: S 11 km/h
Temperature: 10°C
Wind Chill: 8°C
Dew Point: 7°C
Humidity: 82%
Barometer: 1004 hPa
Clouds: Few Clouds
Visibility: 10 km
Cloud details: Few Clouds 640 m
2019/10/17 06:20 EGFF 170620Z AUTO 19006KT 9999 FEW021 10/07 Q1004
EGGD - Bristol/Lulsgate, United Kingdom
Distance from station: ESE 43km
Updated: 17/10/2019 07:20
Clear
Clear
 Wind from SSE
Wind: SSE 15 km/h
Temperature: 8°C
Wind Chill: 5°C
Dew Point: 7°C
Humidity: 93%
Barometer: 1005 hPa
Clouds: Clear
Visibility: 10 km
2019/10/17 06:20 EGGD 170620Z AUTO 16008KT 9999 NCD 08/07 Q1005
 
EGDY - Yeovilton (navy), United Kingdom
Distance from station: SE 77km
Updated: 17/10/2019 06:50
Mostly cloudy
Mostly cloudy
 Wind from ESE
Wind: ESE 11 km/h
Temperature: 8°C
Wind Chill: 6°C
Dew Point: 8°C
Humidity: 100%
Barometer: 1005 hPa
Clouds: Mostly cloudy
Visibility: 10 km
Cloud details: Few Clouds 610 m
Partly cloudy 1219 m
Mostly cloudy 3048 m
2019/10/17 05:50 EGDY 170550Z 12006KT 9999 FEW020 SCT040 BKN100 08/08 Q1005 BLU
EGTE - Exeter Airport, United Kingdom
Distance from station: S 96km
Updated: 17/10/2019 07:20
Few Clouds
Few Clouds
 Wind from varies
Wind: varies 4 km/h
Temperature: 8°C
Dew Point: 8°C
Humidity: 100%
Barometer: 1004 hPa
Clouds: Few Clouds
Visibility: 10 km
Cloud details: Few Clouds 1067 m
2019/10/17 06:20 EGTE 170620Z VRB02KT 9999 FEW035 08/08 Q1004